sensor_id;sensor_type;location;lat;lon;timestamp;P1;durP1;ratioP1;P2;durP2;ratioP2
37445;SDS011;23307;51.136;14.942;2023-07-08T00:00:19;5.90;;;4.90;;
37445;SDS011;23307;51.136;14.942;2023-07-08T00:02:45;6.00;;;5.03;;
37445;SDS011;23307;51.136;14.942;2023-07-08T00:05:12;5.10;;;4.60;;
37445;SDS011;23307;51.136;14.942;2023-07-08T00:07:39;5.78;;;4.63;;
37445;SDS011;23307;51.136;14.942;2023-07-08T00:10:12;4.40;;;4.00;;
37445;SDS011;23307;51.136;14.942;2023-07-08T00:12:40;5.07;;;4.07;;
37445;SDS011;23307;51.136;14.942;2023-07-08T00:15:07;4.53;;;3.70;;
37445;SDS011;23307;51.136;14.942;2023-07-08T00:17:33;4.35;;;3.95;;
37445;SDS011;23307;51.136;14.942;2023-07-08T00:19:58;4.63;;;4.18;;
37445;SDS011;23307;51.136;14.942;2023-07-08T00:22:24;9.07;;;4.32;;
37445;SDS011;23307;51.136;14.942;2023-07-08T00:24:49;6.10;;;4.05;;
37445;SDS011;23307;51.136;14.942;2023-07-08T00:27:16;6.03;;;3.88;;
37445;SDS011;23307;51.136;14.942;2023-07-08T00:29:41;4.60;;;4.10;;
37445;SDS011;23307;51.136;14.942;2023-07-08T00:32:09;4.45;;;4.05;;
37445;SDS011;23307;51.136;14.942;2023-07-08T00:34:36;7.45;;;4.22;;
37445;SDS011;23307;51.136;14.942;2023-07-08T00:37:01;7.03;;;4.38;;
37445;SDS011;23307;51.136;14.942;2023-07-08T00:39:29;5.25;;;4.10;;
37445;SDS011;23307;51.136;14.942;2023-07-08T00:41:55;5.88;;;4.30;;
37445;SDS011;23307;51.136;14.942;2023-07-08T00:44:23;6.38;;;4.38;;
37445;SDS011;23307;51.136;14.942;2023-07-08T00:46:55;4.97;;;4.47;;
37445;SDS011;23307;51.136;14.942;2023-07-08T00:51:53;7.63;;;4.68;;
37445;SDS011;23307;51.136;14.942;2023-07-08T00:54:19;6.45;;;5.07;;
37445;SDS011;23307;51.136;14.942;2023-07-08T00:59:29;6.65;;;5.43;;
37445;SDS011;23307;51.136;14.942;2023-07-08T01:01:59;5.45;;;4.90;;
37445;SDS011;23307;51.136;14.942;2023-07-08T01:04:31;6.53;;;5.00;;
37445;SDS011;23307;51.136;14.942;2023-07-08T01:07:07;6.53;;;4.68;;
37445;SDS011;23307;51.136;14.942;2023-07-08T01:09:40;7.00;;;5.28;;
37445;SDS011;23307;51.136;14.942;2023-07-08T01:12:13;5.22;;;4.45;;
37445;SDS011;23307;51.136;14.942;2023-07-08T01:14:41;5.38;;;4.88;;
37445;SDS011;23307;51.136;14.942;2023-07-08T01:17:08;5.95;;;4.97;;
37445;SDS011;23307;51.136;14.942;2023-07-08T01:19:39;7.68;;;5.18;;
37445;SDS011;23307;51.136;14.942;2023-07-08T01:22:08;9.02;;;5.20;;
37445;SDS011;23307;51.136;14.942;2023-07-08T01:24:35;5.05;;;4.57;;
37445;SDS011;23307;51.136;14.942;2023-07-08T01:27:04;6.00;;;4.80;;
37445;SDS011;23307;51.136;14.942;2023-07-08T01:29:32;5.22;;;4.72;;
37445;SDS011;23307;51.136;14.942;2023-07-08T01:31:58;7.43;;;4.93;;
37445;SDS011;23307;51.136;14.942;2023-07-08T01:34:27;5.97;;;4.85;;
37445;SDS011;23307;51.136;14.942;2023-07-08T01:36:54;5.50;;;4.50;;
37445;SDS011;23307;51.136;14.942;2023-07-08T01:39:22;5.15;;;4.38;;
37445;SDS011;23307;51.136;14.942;2023-07-08T01:41:49;6.78;;;3.60;;
37445;SDS011;23307;51.136;14.942;2023-07-08T01:44:34;4.53;;;3.78;;
37445;SDS011;23307;51.136;14.942;2023-07-08T01:47:19;5.03;;;3.63;;
37445;SDS011;23307;51.136;14.942;2023-07-08T01:49:47;5.38;;;4.07;;
37445;SDS011;23307;51.136;14.942;2023-07-08T01:52:14;6.82;;;3.92;;
37445;SDS011;23307;51.136;14.942;2023-07-08T01:54:42;4.78;;;3.92;;
37445;SDS011;23307;51.136;14.942;2023-07-08T01:57:07;4.97;;;3.97;;
37445;SDS011;23307;51.136;14.942;2023-07-08T01:59:33;6.07;;;4.00;;
37445;SDS011;23307;51.136;14.942;2023-07-08T02:01:58;4.63;;;3.97;;
37445;SDS011;23307;51.136;14.942;2023-07-08T02:04:24;6.65;;;3.70;;
37445;SDS011;23307;51.136;14.942;2023-07-08T02:06:52;4.68;;;3.42;;
37445;SDS011;23307;51.136;14.942;2023-07-08T02:09:22;5.05;;;3.22;;
37445;SDS011;23307;51.136;14.942;2023-07-08T02:11:49;6.40;;;3.10;;
37445;SDS011;23307;51.136;14.942;2023-07-08T02:14:15;4.00;;;2.75;;
37445;SDS011;23307;51.136;14.942;2023-07-08T02:16:41;4.93;;;2.97;;
37445;SDS011;23307;51.136;14.942;2023-07-08T02:19:06;3.60;;;2.97;;
37445;SDS011;23307;51.136;14.942;2023-07-08T02:21:32;7.55;;;3.40;;
37445;SDS011;23307;51.136;14.942;2023-07-08T02:23:58;4.45;;;3.20;;
37445;SDS011;23307;51.136;14.942;2023-07-08T02:26:25;6.95;;;3.10;;
37445;SDS011;23307;51.136;14.942;2023-07-08T02:28:51;6.85;;;3.67;;
37445;SDS011;23307;51.136;14.942;2023-07-08T02:31:17;4.00;;;3.00;;
37445;SDS011;23307;51.136;14.942;2023-07-08T02:33:42;4.78;;;3.00;;
37445;SDS011;23307;51.136;14.942;2023-07-08T02:36:08;6.20;;;2.92;;
37445;SDS011;23307;51.136;14.942;2023-07-08T02:38:33;4.50;;;3.13;;
37445;SDS011;23307;51.136;14.942;2023-07-08T02:40:59;4.13;;;2.85;;
37445;SDS011;23307;51.136;14.942;2023-07-08T02:43:25;5.28;;;2.78;;
37445;SDS011;23307;51.136;14.942;2023-07-08T02:45:50;4.07;;;2.70;;
37445;SDS011;23307;51.136;14.942;2023-07-08T02:48:17;4.10;;;2.53;;
37445;SDS011;23307;51.136;14.942;2023-07-08T02:50:43;5.63;;;2.78;;
37445;SDS011;23307;51.136;14.942;2023-07-08T02:53:09;4.85;;;3.00;;
37445;SDS011;23307;51.136;14.942;2023-07-08T02:55:34;4.93;;;2.78;;
37445;SDS011;23307;51.136;14.942;2023-07-08T02:58:00;3.50;;;3.00;;
37445;SDS011;23307;51.136;14.942;2023-07-08T03:00:25;4.68;;;2.72;;
37445;SDS011;23307;51.136;14.942;2023-07-08T03:02:51;8.65;;;2.78;;
37445;SDS011;23307;51.136;14.942;2023-07-08T03:05:16;7.63;;;2.90;;
37445;SDS011;23307;51.136;14.942;2023-07-08T03:07:42;5.68;;;2.90;;
37445;SDS011;23307;51.136;14.942;2023-07-08T03:10:07;7.35;;;2.97;;
37445;SDS011;23307;51.136;14.942;2023-07-08T03:12:34;3.17;;;2.70;;
37445;SDS011;23307;51.136;14.942;2023-07-08T03:14:59;3.65;;;2.58;;
37445;SDS011;23307;51.136;14.942;2023-07-08T03:17:25;3.60;;;2.30;;
37445;SDS011;23307;51.136;14.942;2023-07-08T03:19:50;4.70;;;2.50;;
37445;SDS011;23307;51.136;14.942;2023-07-08T03:22:16;4.78;;;2.75;;
37445;SDS011;23307;51.136;14.942;2023-07-08T03:24:41;4.93;;;2.90;;
37445;SDS011;23307;51.136;14.942;2023-07-08T03:27:11;3.38;;;2.47;;
37445;SDS011;23307;51.136;14.942;2023-07-08T03:29:39;5.05;;;3.65;;
37445;SDS011;23307;51.136;14.942;2023-07-08T03:32:06;4.50;;;2.50;;
37445;SDS011;23307;51.136;14.942;2023-07-08T03:34:37;6.28;;;2.80;;
37445;SDS011;23307;51.136;14.942;2023-07-08T03:37:02;5.60;;;2.58;;
37445;SDS011;23307;51.136;14.942;2023-07-08T03:39:28;4.68;;;2.40;;
37445;SDS011;23307;51.136;14.942;2023-07-08T03:41:54;5.10;;;2.58;;
37445;SDS011;23307;51.136;14.942;2023-07-08T03:44:20;3.90;;;3.05;;
37445;SDS011;23307;51.136;14.942;2023-07-08T03:46:47;5.07;;;2.58;;
37445;SDS011;23307;51.136;14.942;2023-07-08T03:49:17;4.70;;;2.78;;
37445;SDS011;23307;51.136;14.942;2023-07-08T03:51:48;4.30;;;2.47;;
37445;SDS011;23307;51.136;14.942;2023-07-08T03:54:15;3.80;;;2.45;;
37445;SDS011;23307;51.136;14.942;2023-07-08T03:56:42;3.08;;;2.60;;
37445;SDS011;23307;51.136;14.942;2023-07-08T03:59:08;6.75;;;2.42;;
37445;SDS011;23307;51.136;14.942;2023-07-08T04:01:34;2.85;;;2.38;;
37445;SDS011;23307;51.136;14.942;2023-07-08T04:03:59;4.60;;;2.50;;
37445;SDS011;23307;51.136;14.942;2023-07-08T04:06:25;4.63;;;2.60;;
37445;SDS011;23307;51.136;14.942;2023-07-08T04:08:53;6.57;;;3.10;;
37445;SDS011;23307;51.136;14.942;2023-07-08T04:11:20;6.75;;;2.88;;
37445;SDS011;23307;51.136;14.942;2023-07-08T04:13:46;4.32;;;2.38;;
37445;SDS011;23307;51.136;14.942;2023-07-08T04:16:16;3.17;;;2.47;;
37445;SDS011;23307;51.136;14.942;2023-07-08T04:18:48;4.28;;;2.67;;
37445;SDS011;23307;51.136;14.942;2023-07-08T04:21:16;4.28;;;2.72;;
37445;SDS011;23307;51.136;14.942;2023-07-08T04:23:42;5.82;;;2.60;;
37445;SDS011;23307;51.136;14.942;2023-07-08T04:26:08;3.03;;;2.50;;
37445;SDS011;23307;51.136;14.942;2023-07-08T04:28:34;4.22;;;2.72;;
37445;SDS011;23307;51.136;14.942;2023-07-08T04:30:59;6.60;;;2.40;;
37445;SDS011;23307;51.136;14.942;2023-07-08T04:33:26;3.53;;;2.58;;
37445;SDS011;23307;51.136;14.942;2023-07-08T04:35:51;4.03;;;2.60;;
37445;SDS011;23307;51.136;14.942;2023-07-08T04:38:19;3.65;;;2.60;;
37445;SDS011;23307;51.136;14.942;2023-07-08T04:40:50;4.82;;;2.72;;
37445;SDS011;23307;51.136;14.942;2023-07-08T04:43:17;4.40;;;2.67;;
37445;SDS011;23307;51.136;14.942;2023-07-08T04:45:45;4.40;;;2.60;;
37445;SDS011;23307;51.136;14.942;2023-07-08T04:48:15;5.93;;;2.88;;
37445;SDS011;23307;51.136;14.942;2023-07-08T04:50:45;4.53;;;2.55;;
37445;SDS011;23307;51.136;14.942;2023-07-08T04:53:12;2.80;;;2.38;;
37445;SDS011;23307;51.136;14.942;2023-07-08T04:55:38;4.50;;;2.40;;
37445;SDS011;23307;51.136;14.942;2023-07-08T04:58:09;3.92;;;2.70;;
37445;SDS011;23307;51.136;14.942;2023-07-08T05:00:35;6.88;;;2.70;;
37445;SDS011;23307;51.136;14.942;2023-07-08T05:03:01;6.30;;;2.53;;
37445;SDS011;23307;51.136;14.942;2023-07-08T05:05:26;5.20;;;2.67;;
37445;SDS011;23307;51.136;14.942;2023-07-08T05:07:52;3.35;;;2.75;;
37445;SDS011;23307;51.136;14.942;2023-07-08T05:10:18;9.63;;;2.83;;
37445;SDS011;23307;51.136;14.942;2023-07-08T05:12:45;5.45;;;2.75;;
37445;SDS011;23307;51.136;14.942;2023-07-08T05:15:11;3.92;;;2.83;;
37445;SDS011;23307;51.136;14.942;2023-07-08T05:17:37;3.47;;;2.65;;
37445;SDS011;23307;51.136;14.942;2023-07-08T05:20:04;7.55;;;2.95;;
37445;SDS011;23307;51.136;14.942;2023-07-08T05:22:32;4.20;;;2.80;;
37445;SDS011;23307;51.136;14.942;2023-07-08T05:24:58;3.65;;;2.33;;
37445;SDS011;23307;51.136;14.942;2023-07-08T05:27:24;3.75;;;2.50;;
37445;SDS011;23307;51.136;14.942;2023-07-08T05:29:50;7.90;;;2.45;;
37445;SDS011;23307;51.136;14.942;2023-07-08T05:32:15;7.80;;;2.40;;
37445;SDS011;23307;51.136;14.942;2023-07-08T05:34:42;4.57;;;2.50;;
37445;SDS011;23307;51.136;14.942;2023-07-08T05:37:07;4.57;;;2.60;;
37445;SDS011;23307;51.136;14.942;2023-07-08T05:39:33;5.97;;;2.60;;
37445;SDS011;23307;51.136;14.942;2023-07-08T05:41:59;8.45;;;2.60;;
37445;SDS011;23307;51.136;14.942;2023-07-08T05:44:25;6.25;;;2.55;;
37445;SDS011;23307;51.136;14.942;2023-07-08T05:46:50;7.15;;;2.58;;
37445;SDS011;23307;51.136;14.942;2023-07-08T05:49:16;5.57;;;2.35;;
37445;SDS011;23307;51.136;14.942;2023-07-08T05:51:43;4.53;;;2.63;;
37445;SDS011;23307;51.136;14.942;2023-07-08T05:54:09;5.85;;;2.50;;
37445;SDS011;23307;51.136;14.942;2023-07-08T05:56:34;4.13;;;2.40;;
37445;SDS011;23307;51.136;14.942;2023-07-08T05:59:00;8.23;;;2.50;;
37445;SDS011;23307;51.136;14.942;2023-07-08T06:01:25;5.13;;;2.30;;
37445;SDS011;23307;51.136;14.942;2023-07-08T06:03:51;2.72;;;2.40;;
37445;SDS011;23307;51.136;14.942;2023-07-08T06:06:17;5.40;;;2.50;;
37445;SDS011;23307;51.136;14.942;2023-07-08T06:11:09;4.68;;;2.10;;
37445;SDS011;23307;51.136;14.942;2023-07-08T06:13:35;3.90;;;2.10;;
37445;SDS011;23307;51.136;14.942;2023-07-08T06:16:01;3.03;;;2.50;;
37445;SDS011;23307;51.136;14.942;2023-07-08T06:18:26;4.55;;;2.28;;
37445;SDS011;23307;51.136;14.942;2023-07-08T06:20:53;8.57;;;2.45;;
37445;SDS011;23307;51.136;14.942;2023-07-08T06:23:19;3.22;;;2.30;;
37445;SDS011;23307;51.136;14.942;2023-07-08T06:25:44;4.18;;;2.40;;
37445;SDS011;23307;51.136;14.942;2023-07-08T06:28:10;3.85;;;2.30;;
37445;SDS011;23307;51.136;14.942;2023-07-08T06:30:35;3.65;;;2.28;;
37445;SDS011;23307;51.136;14.942;2023-07-08T06:33:02;6.18;;;2.30;;
37445;SDS011;23307;51.136;14.942;2023-07-08T06:35:28;8.63;;;2.65;;
37445;SDS011;23307;51.136;14.942;2023-07-08T06:37:54;5.50;;;2.33;;
37445;SDS011;23307;51.136;14.942;2023-07-08T06:40:19;11.50;;;2.60;;
37445;SDS011;23307;51.136;14.942;2023-07-08T06:42:46;3.95;;;2.58;;
37445;SDS011;23307;51.136;14.942;2023-07-08T06:45:11;8.35;;;2.85;;
37445;SDS011;23307;51.136;14.942;2023-07-08T06:47:37;7.68;;;2.65;;
37445;SDS011;23307;51.136;14.942;2023-07-08T06:50:02;5.65;;;2.47;;
37445;SDS011;23307;51.136;14.942;2023-07-08T06:52:28;5.22;;;2.50;;
37445;SDS011;23307;51.136;14.942;2023-07-08T06:55:00;8.75;;;2.70;;
37445;SDS011;23307;51.136;14.942;2023-07-08T06:57:27;3.10;;;2.55;;
37445;SDS011;23307;51.136;14.942;2023-07-08T06:59:53;3.30;;;2.25;;
37445;SDS011;23307;51.136;14.942;2023-07-08T07:02:19;5.18;;;2.40;;
37445;SDS011;23307;51.136;14.942;2023-07-08T07:04:45;4.15;;;2.72;;
37445;SDS011;23307;51.136;14.942;2023-07-08T07:07:11;4.80;;;2.28;;
37445;SDS011;23307;51.136;14.942;2023-07-08T07:09:37;3.50;;;2.45;;
37445;SDS011;23307;51.136;14.942;2023-07-08T07:12:03;6.20;;;2.38;;
37445;SDS011;23307;51.136;14.942;2023-07-08T07:14:30;3.90;;;2.45;;
37445;SDS011;23307;51.136;14.942;2023-07-08T07:16:56;3.92;;;2.30;;
37445;SDS011;23307;51.136;14.942;2023-07-08T07:19:21;2.70;;;2.30;;
37445;SDS011;23307;51.136;14.942;2023-07-08T07:21:47;3.63;;;2.30;;
37445;SDS011;23307;51.136;14.942;2023-07-08T07:24:12;2.38;;;2.17;;
37445;SDS011;23307;51.136;14.942;2023-07-08T07:26:38;2.67;;;2.13;;
37445;SDS011;23307;51.136;14.942;2023-07-08T07:29:04;6.40;;;2.38;;
37445;SDS011;23307;51.136;14.942;2023-07-08T07:31:30;3.53;;;2.10;;
37445;SDS011;23307;51.136;14.942;2023-07-08T07:33:57;4.35;;;2.42;;
37445;SDS011;23307;51.136;14.942;2023-07-08T07:36:23;7.18;;;2.50;;
37445;SDS011;23307;51.136;14.942;2023-07-08T07:38:49;2.85;;;2.08;;
37445;SDS011;23307;51.136;14.942;2023-07-08T07:41:14;2.92;;;2.38;;
37445;SDS011;23307;51.136;14.942;2023-07-08T07:43:41;5.43;;;2.75;;
37445;SDS011;23307;51.136;14.942;2023-07-08T07:46:07;5.95;;;2.20;;
37445;SDS011;23307;51.136;14.942;2023-07-08T07:48:35;3.33;;;2.10;;
37445;SDS011;23307;51.136;14.942;2023-07-08T07:51:01;5.00;;;2.47;;
37445;SDS011;23307;51.136;14.942;2023-07-08T07:53:27;4.47;;;2.28;;
37445;SDS011;23307;51.136;14.942;2023-07-08T07:55:56;5.60;;;2.85;;
37445;SDS011;23307;51.136;14.942;2023-07-08T07:58:25;4.07;;;2.75;;
37445;SDS011;23307;51.136;14.942;2023-07-08T08:00:52;5.43;;;2.63;;
37445;SDS011;23307;51.136;14.942;2023-07-08T08:03:18;3.67;;;2.10;;
37445;SDS011;23307;51.136;14.942;2023-07-08T08:05:45;7.35;;;2.40;;
37445;SDS011;23307;51.136;14.942;2023-07-08T08:08:10;4.45;;;2.45;;
37445;SDS011;23307;51.136;14.942;2023-07-08T08:10:36;3.67;;;2.25;;
37445;SDS011;23307;51.136;14.942;2023-07-08T08:13:03;4.43;;;2.58;;
37445;SDS011;23307;51.136;14.942;2023-07-08T08:15:29;3.80;;;2.38;;
37445;SDS011;23307;51.136;14.942;2023-07-08T08:17:55;4.70;;;2.33;;
37445;SDS011;23307;51.136;14.942;2023-07-08T08:20:22;6.75;;;2.50;;
37445;SDS011;23307;51.136;14.942;2023-07-08T08:22:49;3.10;;;2.40;;
37445;SDS011;23307;51.136;14.942;2023-07-08T08:25:17;4.78;;;2.38;;
37445;SDS011;23307;51.136;14.942;2023-07-08T08:27:44;2.65;;;2.30;;
37445;SDS011;23307;51.136;14.942;2023-07-08T08:30:10;3.67;;;2.50;;
37445;SDS011;23307;51.136;14.942;2023-07-08T08:32:37;4.28;;;2.50;;
37445;SDS011;23307;51.136;14.942;2023-07-08T08:35:03;2.50;;;2.30;;
37445;SDS011;23307;51.136;14.942;2023-07-08T08:37:29;4.80;;;2.50;;
37445;SDS011;23307;51.136;14.942;2023-07-08T08:39:55;3.30;;;2.55;;
37445;SDS011;23307;51.136;14.942;2023-07-08T08:45:07;2.88;;;2.33;;
37445;SDS011;23307;51.136;14.942;2023-07-08T08:47:38;2.80;;;2.50;;
37445;SDS011;23307;51.136;14.942;2023-07-08T08:52:53;3.13;;;2.40;;
37445;SDS011;23307;51.136;14.942;2023-07-08T08:55:20;2.50;;;2.30;;
37445;SDS011;23307;51.136;14.942;2023-07-08T08:58:01;3.88;;;2.30;;
37445;SDS011;23307;51.136;14.942;2023-07-08T09:00:51;4.30;;;2.42;;
37445;SDS011;23307;51.136;14.942;2023-07-08T09:06:13;2.65;;;2.40;;
37445;SDS011;23307;51.136;14.942;2023-07-08T09:09:24;3.55;;;2.40;;
37445;SDS011;23307;51.136;14.942;2023-07-08T09:12:05;2.97;;;2.65;;
37445;SDS011;23307;51.136;14.942;2023-07-08T09:14:37;3.20;;;2.50;;
37445;SDS011;23307;51.136;14.942;2023-07-08T09:19:57;2.42;;;2.17;;
37445;SDS011;23307;51.136;14.942;2023-07-08T09:25:31;3.28;;;2.40;;
37445;SDS011;23307;51.136;14.942;2023-07-08T09:28:00;4.18;;;2.60;;
37445;SDS011;23307;51.136;14.942;2023-07-08T09:30:25;3.13;;;2.60;;
37445;SDS011;23307;51.136;14.942;2023-07-08T09:32:54;3.10;;;2.17;;
37445;SDS011;23307;51.136;14.942;2023-07-08T09:35:27;2.90;;;2.60;;
37445;SDS011;23307;51.136;14.942;2023-07-08T09:37:54;4.03;;;2.47;;
37445;SDS011;23307;51.136;14.942;2023-07-08T09:42:51;3.50;;;2.33;;
37445;SDS011;23307;51.136;14.942;2023-07-08T09:45:23;3.97;;;2.30;;
37445;SDS011;23307;51.136;14.942;2023-07-08T09:47:56;4.63;;;2.60;;
37445;SDS011;23307;51.136;14.942;2023-07-08T09:50:24;4.03;;;2.40;;
37445;SDS011;23307;51.136;14.942;2023-07-08T09:52:52;3.15;;;2.40;;
37445;SDS011;23307;51.136;14.942;2023-07-08T09:55:19;3.22;;;2.22;;
37445;SDS011;23307;51.136;14.942;2023-07-08T09:57:55;3.72;;;2.40;;
37445;SDS011;23307;51.136;14.942;2023-07-08T10:00:27;3.30;;;2.60;;
37445;SDS011;23307;51.136;14.942;2023-07-08T10:02:59;3.50;;;2.40;;
37445;SDS011;23307;51.136;14.942;2023-07-08T10:05:33;2.80;;;2.15;;
37445;SDS011;23307;51.136;14.942;2023-07-08T10:08:08;2.58;;;2.22;;
37445;SDS011;23307;51.136;14.942;2023-07-08T10:10:43;4.45;;;2.50;;
37445;SDS011;23307;51.136;14.942;2023-07-08T10:13:23;4.10;;;2.38;;
37445;SDS011;23307;51.136;14.942;2023-07-08T10:18:40;4.47;;;2.22;;
37445;SDS011;23307;51.136;14.942;2023-07-08T10:21:14;4.30;;;2.30;;
37445;SDS011;23307;51.136;14.942;2023-07-08T10:30:21;5.22;;;2.45;;
37445;SDS011;23307;51.136;14.942;2023-07-08T10:35:30;2.92;;;2.22;;
37445;SDS011;23307;51.136;14.942;2023-07-08T10:40:48;2.22;;;1.80;;
37445;SDS011;23307;51.136;14.942;2023-07-08T10:49:21;2.97;;;2.25;;
37445;SDS011;23307;51.136;14.942;2023-07-08T11:05:56;3.25;;;2.22;;
37445;SDS011;23307;51.136;14.942;2023-07-08T11:08:26;3.45;;;2.20;;
37445;SDS011;23307;51.136;14.942;2023-07-08T11:11:03;5.22;;;2.10;;
37445;SDS011;23307;51.136;14.942;2023-07-08T11:13:41;3.22;;;2.10;;
37445;SDS011;23307;51.136;14.942;2023-07-08T11:16:24;3.42;;;2.33;;
37445;SDS011;23307;51.136;14.942;2023-07-08T11:19:09;3.20;;;2.22;;
37445;SDS011;23307;51.136;14.942;2023-07-08T11:21:45;2.50;;;2.30;;
37445;SDS011;23307;51.136;14.942;2023-07-08T11:29:31;4.50;;;2.17;;
37445;SDS011;23307;51.136;14.942;2023-07-08T11:31:57;6.07;;;2.45;;
37445;SDS011;23307;51.136;14.942;2023-07-08T11:34:23;4.18;;;2.38;;
37445;SDS011;23307;51.136;14.942;2023-07-08T11:36:50;3.45;;;2.50;;
37445;SDS011;23307;51.136;14.942;2023-07-08T11:39:27;5.85;;;2.50;;
37445;SDS011;23307;51.136;14.942;2023-07-08T11:42:09;2.80;;;2.35;;
37445;SDS011;23307;51.136;14.942;2023-07-08T11:44:57;2.70;;;2.40;;
37445;SDS011;23307;51.136;14.942;2023-07-08T11:47:33;3.65;;;2.22;;
37445;SDS011;23307;51.136;14.942;2023-07-08T11:50:05;3.05;;;2.03;;
37445;SDS011;23307;51.136;14.942;2023-07-08T11:52:54;2.83;;;2.50;;
37445;SDS011;23307;51.136;14.942;2023-07-08T11:55:27;3.17;;;2.45;;
37445;SDS011;23307;51.136;14.942;2023-07-08T12:00:54;2.65;;;2.40;;
37445;SDS011;23307;51.136;14.942;2023-07-08T12:03:28;2.65;;;2.33;;
37445;SDS011;23307;51.136;14.942;2023-07-08T12:06:01;3.10;;;2.20;;
37445;SDS011;23307;51.136;14.942;2023-07-08T12:08:36;2.67;;;2.38;;
37445;SDS011;23307;51.136;14.942;2023-07-08T12:11:07;2.20;;;2.00;;
37445;SDS011;23307;51.136;14.942;2023-07-08T12:13:36;2.08;;;1.98;;
37445;SDS011;23307;51.136;14.942;2023-07-08T12:16:02;3.00;;;2.15;;
37445;SDS011;23307;51.136;14.942;2023-07-08T12:18:32;2.90;;;2.28;;
37445;SDS011;23307;51.136;14.942;2023-07-08T12:21:01;2.35;;;1.90;;
37445;SDS011;23307;51.136;14.942;2023-07-08T12:23:27;2.58;;;2.38;;
37445;SDS011;23307;51.136;14.942;2023-07-08T12:25:54;2.63;;;2.08;;
37445;SDS011;23307;51.136;14.942;2023-07-08T12:28:21;2.58;;;2.38;;
37445;SDS011;23307;51.136;14.942;2023-07-08T12:30:47;4.07;;;2.55;;
37445;SDS011;23307;51.136;14.942;2023-07-08T12:33:14;3.40;;;2.40;;
37445;SDS011;23307;51.136;14.942;2023-07-08T12:35:44;2.22;;;2.03;;
37445;SDS011;23307;51.136;14.942;2023-07-08T12:38:18;3.22;;;2.28;;
37445;SDS011;23307;51.136;14.942;2023-07-08T12:40:58;3.60;;;2.33;;
37445;SDS011;23307;51.136;14.942;2023-07-08T12:43:26;3.20;;;2.25;;
37445;SDS011;23307;51.136;14.942;2023-07-08T12:45:52;5.18;;;2.40;;
37445;SDS011;23307;51.136;14.942;2023-07-08T12:48:17;3.08;;;2.78;;
37445;SDS011;23307;51.136;14.942;2023-07-08T12:50:43;3.22;;;2.28;;
37445;SDS011;23307;51.136;14.942;2023-07-08T12:53:10;2.60;;;2.25;;
37445;SDS011;23307;51.136;14.942;2023-07-08T12:55:38;4.18;;;2.30;;
37445;SDS011;23307;51.136;14.942;2023-07-08T12:58:05;4.53;;;2.40;;
37445;SDS011;23307;51.136;14.942;2023-07-08T13:00:36;2.70;;;2.30;;
37445;SDS011;23307;51.136;14.942;2023-07-08T13:03:05;3.88;;;2.50;;
37445;SDS011;23307;51.136;14.942;2023-07-08T13:05:37;5.00;;;2.55;;
37445;SDS011;23307;51.136;14.942;2023-07-08T13:08:03;4.97;;;2.42;;
37445;SDS011;23307;51.136;14.942;2023-07-08T13:10:29;4.05;;;2.15;;
37445;SDS011;23307;51.136;14.942;2023-07-08T13:13:00;4.45;;;2.10;;
37445;SDS011;23307;51.136;14.942;2023-07-08T13:15:34;3.10;;;2.38;;
37445;SDS011;23307;51.136;14.942;2023-07-08T13:18:04;2.30;;;2.10;;
37445;SDS011;23307;51.136;14.942;2023-07-08T13:20:30;4.57;;;2.42;;
37445;SDS011;23307;51.136;14.942;2023-07-08T13:23:00;3.65;;;2.15;;
37445;SDS011;23307;51.136;14.942;2023-07-08T13:25:31;4.68;;;2.55;;
37445;SDS011;23307;51.136;14.942;2023-07-08T13:30:55;2.90;;;2.60;;
37445;SDS011;23307;51.136;14.942;2023-07-08T13:33:29;2.55;;;2.35;;
37445;SDS011;23307;51.136;14.942;2023-07-08T13:35:56;2.60;;;2.40;;
37445;SDS011;23307;51.136;14.942;2023-07-08T13:38:23;2.85;;;2.40;;
37445;SDS011;23307;51.136;14.942;2023-07-08T13:40:54;3.65;;;2.05;;
37445;SDS011;23307;51.136;14.942;2023-07-08T13:43:25;2.72;;;2.53;;
37445;SDS011;23307;51.136;14.942;2023-07-08T13:45:53;3.60;;;2.20;;
37445;SDS011;23307;51.136;14.942;2023-07-08T13:48:22;5.95;;;2.20;;
37445;SDS011;23307;51.136;14.942;2023-07-08T13:51:06;4.53;;;2.38;;
37445;SDS011;23307;51.136;14.942;2023-07-08T13:53:42;2.50;;;2.17;;
37445;SDS011;23307;51.136;14.942;2023-07-08T13:56:15;2.78;;;2.50;;
37445;SDS011;23307;51.136;14.942;2023-07-08T13:58:49;6.35;;;2.30;;
37445;SDS011;23307;51.136;14.942;2023-07-08T14:01:21;2.53;;;2.00;;
37445;SDS011;23307;51.136;14.942;2023-07-08T14:03:51;2.75;;;2.15;;
37445;SDS011;23307;51.136;14.942;2023-07-08T14:06:19;4.72;;;2.40;;
37445;SDS011;23307;51.136;14.942;2023-07-08T14:08:53;3.33;;;2.08;;
37445;SDS011;23307;51.136;14.942;2023-07-08T14:11:19;3.05;;;2.10;;
37445;SDS011;23307;51.136;14.942;2023-07-08T14:13:45;3.10;;;2.33;;
37445;SDS011;23307;51.136;14.942;2023-07-08T14:16:19;2.17;;;2.05;;
37445;SDS011;23307;51.136;14.942;2023-07-08T14:18:50;3.65;;;2.47;;
37445;SDS011;23307;51.136;14.942;2023-07-08T14:21:16;3.15;;;2.10;;
37445;SDS011;23307;51.136;14.942;2023-07-08T14:23:43;3.35;;;2.33;;
37445;SDS011;23307;51.136;14.942;2023-07-08T14:26:11;2.35;;;2.13;;
37445;SDS011;23307;51.136;14.942;2023-07-08T14:28:37;2.92;;;2.47;;
37445;SDS011;23307;51.136;14.942;2023-07-08T14:31:03;2.42;;;2.20;;
37445;SDS011;23307;51.136;14.942;2023-07-08T14:33:33;4.72;;;2.42;;
37445;SDS011;23307;51.136;14.942;2023-07-08T14:35:58;3.17;;;2.25;;
37445;SDS011;23307;51.136;14.942;2023-07-08T14:38:24;3.28;;;2.30;;
37445;SDS011;23307;51.136;14.942;2023-07-08T14:40:49;2.38;;;2.17;;
37445;SDS011;23307;51.136;14.942;2023-07-08T14:43:16;2.22;;;2.08;;
37445;SDS011;23307;51.136;14.942;2023-07-08T14:45:55;2.30;;;2.10;;
37445;SDS011;23307;51.136;14.942;2023-07-08T14:48:22;3.40;;;2.30;;
37445;SDS011;23307;51.136;14.942;2023-07-08T14:50:49;3.75;;;2.00;;
37445;SDS011;23307;51.136;14.942;2023-07-08T14:53:14;2.67;;;2.10;;
37445;SDS011;23307;51.136;14.942;2023-07-08T14:55:42;3.20;;;2.25;;
37445;SDS011;23307;51.136;14.942;2023-07-08T14:58:09;2.85;;;2.28;;
37445;SDS011;23307;51.136;14.942;2023-07-08T15:00:56;2.28;;;2.08;;
37445;SDS011;23307;51.136;14.942;2023-07-08T15:03:26;2.70;;;2.35;;
37445;SDS011;23307;51.136;14.942;2023-07-08T15:05:52;2.50;;;2.30;;
37445;SDS011;23307;51.136;14.942;2023-07-08T15:08:18;2.70;;;2.38;;
37445;SDS011;23307;51.136;14.942;2023-07-08T15:10:51;4.22;;;2.47;;
37445;SDS011;23307;51.136;14.942;2023-07-08T15:13:18;2.22;;;2.05;;
37445;SDS011;23307;51.136;14.942;2023-07-08T15:15:46;3.35;;;2.22;;
37445;SDS011;23307;51.136;14.942;2023-07-08T15:18:16;2.40;;;2.08;;
37445;SDS011;23307;51.136;14.942;2023-07-08T15:20:44;2.97;;;1.95;;
37445;SDS011;23307;51.136;14.942;2023-07-08T15:23:10;3.38;;;2.33;;
37445;SDS011;23307;51.136;14.942;2023-07-08T15:25:37;2.35;;;2.10;;
37445;SDS011;23307;51.136;14.942;2023-07-08T15:28:07;3.38;;;2.15;;
37445;SDS011;23307;51.136;14.942;2023-07-08T15:30:40;2.67;;;2.10;;
37445;SDS011;23307;51.136;14.942;2023-07-08T15:33:07;2.88;;;2.05;;
37445;SDS011;23307;51.136;14.942;2023-07-08T15:35:34;2.47;;;2.28;;
37445;SDS011;23307;51.136;14.942;2023-07-08T15:38:00;2.40;;;2.20;;
37445;SDS011;23307;51.136;14.942;2023-07-08T15:40:28;2.10;;;1.90;;
37445;SDS011;23307;51.136;14.942;2023-07-08T15:42:56;2.20;;;2.00;;
37445;SDS011;23307;51.136;14.942;2023-07-08T15:45:31;2.50;;;2.17;;
37445;SDS011;23307;51.136;14.942;2023-07-08T15:47:58;2.17;;;1.98;;
37445;SDS011;23307;51.136;14.942;2023-07-08T15:50:24;2.45;;;2.25;;